Time;durP1;ratioP1;P1;durP2;ratioP2;P2;SDS_P1;SDS_P2;PMS_P1;PMS_P2;Temp;Humidity;BMP_temperature;BMP_pressure;BME280_temperature;BME280_humidity;BME280_pressure;Samples;Min_cycle;Max_cycle;Signal;HPM_P1;HPM_P2
2022/09/27 00:01:04;;;;;;;13.13;10.43;;;;;;;;;;4900134;29;20230;-59
2022/09/27 00:03:35;;;;;;;63.08;19.08;;;;;;;;;;4900194;29;20241;-59
2022/09/27 00:06:09;;;;;;;58.42;22.80;;;;;;;;;;4900384;29;20277;-58
2022/09/27 00:08:36;;;;;;;31.98;17.27;;;;;;;;;;4884178;29;20304;-59
2022/09/27 00:11:08;;;;;;;20.63;13.95;;;;;;;;;;4900337;29;20272;-59
2022/09/27 00:13:35;;;;;;;16.38;11.80;;;;;;;;;;4899186;29;20297;-59
2022/09/27 00:16:06;;;;;;;72.43;39.88;;;;;;;;;;4899968;29;20220;-58
2022/09/27 00:18:33;;;;;;;158.82;54.75;;;;;;;;;;4900389;29;20237;-59
2022/09/27 00:21:10;;;;;;;61.78;28.67;;;;;;;;;;4899871;29;20598;-58
2022/09/27 00:23:38;;;;;;;90.40;30.45;;;;;;;;;;4900350;29;20220;-58
2022/09/27 00:26:06;;;;;;;109.88;24.15;;;;;;;;;;4899957;29;20280;-58
2022/09/27 00:28:33;;;;;;;35.20;19.55;;;;;;;;;;4899784;29;20635;-59
2022/09/27 00:31:01;;;;;;;33.20;19.00;;;;;;;;;;4900527;29;20224;-59
2022/09/27 00:33:28;;;;;;;34.47;19.17;;;;;;;;;;4892501;29;20342;-58
2022/09/27 00:36:03;;;;;;;36.22;19.15;;;;;;;;;;4883506;29;20277;-59
2022/09/27 00:38:30;;;;;;;39.00;18.50;;;;;;;;;;4898770;29;20244;-58
2022/09/27 00:40:57;;;;;;;35.40;20.63;;;;;;;;;;4900125;29;20599;-59
2022/09/27 00:43:23;;;;;;;60.22;38.65;;;;;;;;;;4900177;29;20223;-59
2022/09/27 00:45:54;;;;;;;171.88;111.72;;;;;;;;;;4899830;29;20280;-59
2022/09/27 00:48:24;;;;;;;31.15;20.00;;;;;;;;;;4899623;29;20198;-59
2022/09/27 00:50:53;;;;;;;24.17;15.82;;;;;;;;;;4899874;29;20280;-58
2022/09/27 00:53:23;;;;;;;269.58;162.40;;;;;;;;;;4883393;29;20281;-59
2022/09/27 00:55:54;;;;;;;388.85;250.43;;;;;;;;;;4900296;29;20228;-59
2022/09/27 00:58:26;;;;;;;96.43;52.58;;;;;;;;;;4898940;29;20578;-58
2022/09/27 01:00:58;;;;;;;87.28;40.80;;;;;;;;;;4900049;29;20568;-59
2022/09/27 01:03:31;;;;;;;33.92;18.83;;;;;;;;;;4899670;29;20245;-58
2022/09/27 01:05:59;;;;;;;22.55;14.30;;;;;;;;;;4899482;29;20516;-59
2022/09/27 01:08:26;;;;;;;26.50;14.02;;;;;;;;;;4900058;29;20214;-59
2022/09/27 01:11:26;;;;;;;24.65;14.38;;;;;;;;;;4900259;29;20210;-59
2022/09/27 01:14:12;;;;;;;20.50;13.82;;;;;;;;;;4874746;29;20201;-58
2022/09/27 01:17:00;;;;;;;22.77;14.85;;;;;;;;;;4886839;29;20695;-58
2022/09/27 01:19:30;;;;;;;25.23;15.30;;;;;;;;;;4872098;29;20312;-59
2022/09/27 01:22:05;;;;;;;28.88;17.80;;;;;;;;;;4903510;29;20519;-58
2022/09/27 01:24:44;;;;;;;91.10;48.88;;;;;;;;;;4886996;29;20201;-59
2022/09/27 01:27:17;;;;;;;190.35;109.78;;;;;;;;;;4886702;29;20643;-58
2022/09/27 01:30:17;;;;;;;139.25;83.60;;;;;;;;;;4886696;29;20261;-58
2022/09/27 01:33:01;;;;;;;35.80;23.23;;;;;;;;;;4902572;29;20194;-58
2022/09/27 01:35:34;;;;;;;20.45;14.15;;;;;;;;;;4867595;29;20209;-58
2022/09/27 01:38:10;;;;;;;184.52;104.03;;;;;;;;;;4882893;29;20225;-59
2022/09/27 01:40:40;;;;;;;222.48;129.48;;;;;;;;;;4882829;29;20241;-59
2022/09/27 01:44:08;;;;;;;91.82;55.85;;;;;;;;;;4882446;29;20207;-58
2022/09/27 01:46:47;;;;;;;216.68;120.70;;;;;;;;;;4862378;29;20213;-58
2022/09/27 01:49:53;;;;;;;77.20;45.72;;;;;;;;;;4866926;29;20623;-58
2022/09/27 01:52:26;;;;;;;201.07;118.32;;;;;;;;;;4852131;29;20289;-58
2022/09/27 01:54:55;;;;;;;95.43;54.22;;;;;;;;;;4851819;29;20631;-58
2022/09/27 01:57:37;;;;;;;85.38;49.83;;;;;;;;;;4868577;29;20608;-58
2022/09/27 02:00:10;;;;;;;86.32;46.17;;;;;;;;;;4867403;29;20224;-59
2022/09/27 02:02:48;;;;;;;74.95;42.83;;;;;;;;;;4882604;29;20206;-58
2022/09/27 02:05:58;;;;;;;136.68;73.78;;;;;;;;;;4893411;29;20261;-58
2022/09/27 02:09:06;;;;;;;62.75;33.25;;;;;;;;;;4891994;29;20284;-59
2022/09/27 02:12:04;;;;;;;62.85;32.03;;;;;;;;;;4919257;29;20231;-58
2022/09/27 02:14:46;;;;;;;128.20;60.50;;;;;;;;;;4904641;29;20623;-58
2022/09/27 02:17:25;;;;;;;70.22;36.63;;;;;;;;;;4905077;29;20217;-58
2022/09/27 02:20:07;;;;;;;115.57;49.05;;;;;;;;;;4905164;29;20607;-58
2022/09/27 02:22:54;;;;;;;57.20;28.85;;;;;;;;;;4905218;29;20546;-58
2022/09/27 02:25:24;;;;;;;133.68;55.85;;;;;;;;;;4905040;29;20212;-58
2022/09/27 02:28:07;;;;;;;133.10;54.08;;;;;;;;;;4904916;29;20323;-58
2022/09/27 02:30:35;;;;;;;552.58;247.63;;;;;;;;;;4904791;29;20209;-58
2022/09/27 02:33:18;;;;;;;308.10;116.13;;;;;;;;;;4890489;29;20721;-58
2022/09/27 02:35:45;;;;;;;195.32;81.20;;;;;;;;;;4904997;29;20217;-59
2022/09/27 02:38:12;;;;;;;52.10;23.95;;;;;;;;;;4888761;29;20661;-59
2022/09/27 02:40:45;;;;;;;37.58;18.38;;;;;;;;;;4904596;29;20229;-58
2022/09/27 02:43:16;;;;;;;27.58;18.85;;;;;;;;;;4904284;29;20267;-58
2022/09/27 02:45:50;;;;;;;36.13;16.33;;;;;;;;;;4888536;29;20205;-58
2022/09/27 02:48:54;;;;;;;33.22;15.75;;;;;;;;;;4904258;29;20196;-58
2022/09/27 02:51:49;;;;;;;39.25;15.88;;;;;;;;;;4897649;29;20312;-58
2022/09/27 02:54:32;;;;;;;35.33;15.98;;;;;;;;;;4904146;29;20208;-58
2022/09/27 02:57:44;;;;;;;50.95;17.27;;;;;;;;;;4918820;29;20212;-58
2022/09/27 03:01:06;;;;;;;39.60;15.98;;;;;;;;;;4920338;29;20228;-58
2022/09/27 03:03:49;;;;;;;35.45;14.73;;;;;;;;;;4865982;29;20206;-58
2022/09/27 03:06:18;;;;;;;32.53;15.15;;;;;;;;;;4881285;29;20239;-59
2022/09/27 03:08:45;;;;;;;34.97;15.15;;;;;;;;;;4865720;29;20587;-59
2022/09/27 03:11:12;;;;;;;33.92;15.13;;;;;;;;;;4865537;29;20205;-58
2022/09/27 03:13:41;;;;;;;22.92;14.65;;;;;;;;;;4865650;29;20214;-58
2022/09/27 03:16:30;;;;;;;37.38;14.77;;;;;;;;;;4865569;29;20210;-58
2022/09/27 03:19:30;;;;;;;42.22;16.88;;;;;;;;;;4880745;29;20241;-58
2022/09/27 03:22:23;;;;;;;26.98;14.80;;;;;;;;;;4879802;29;20214;-59
2022/09/27 03:24:51;;;;;;;32.40;15.02;;;;;;;;;;4880712;29;20545;-58
2022/09/27 03:27:18;;;;;;;26.17;15.10;;;;;;;;;;4865274;29;20210;-58
2022/09/27 03:29:45;;;;;;;21.20;13.48;;;;;;;;;;4878130;29;20564;-58
2022/09/27 03:32:13;;;;;;;39.38;15.15;;;;;;;;;;4862877;29;20280;-58
2022/09/27 03:34:54;;;;;;;30.55;13.07;;;;;;;;;;4866656;29;20206;-58
2022/09/27 03:37:21;;;;;;;29.08;15.52;;;;;;;;;;4867015;29;20679;-59
2022/09/27 03:39:48;;;;;;;29.17;13.68;;;;;;;;;;4896131;29;20592;-58
2022/09/27 03:42:15;;;;;;;29.50;15.30;;;;;;;;;;4903240;29;20212;-59
2022/09/27 03:44:47;;;;;;;24.00;13.60;;;;;;;;;;4902986;29;20204;-58
2022/09/27 03:47:14;;;;;;;41.28;13.95;;;;;;;;;;4918030;29;20200;-60
2022/09/27 03:49:41;;;;;;;30.92;15.32;;;;;;;;;;4922220;29;20296;-59
2022/09/27 03:52:10;;;;;;;36.60;15.98;;;;;;;;;;4928942;29;20215;-58
2022/09/27 03:54:37;;;;;;;30.92;14.77;;;;;;;;;;4923920;29;20551;-58
2022/09/27 03:57:04;;;;;;;34.60;14.52;;;;;;;;;;4923263;29;20212;-58
2022/09/27 03:59:32;;;;;;;35.22;15.77;;;;;;;;;;4899104;29;20247;-58
2022/09/27 04:02:22;;;;;;;33.63;15.43;;;;;;;;;;4920625;29;20294;-60
2022/09/27 04:05:28;;;;;;;31.63;16.05;;;;;;;;;;4865916;29;20240;-59
2022/09/27 04:08:00;;;;;;;39.75;16.77;;;;;;;;;;4860147;29;20676;-58
2022/09/27 04:10:30;;;;;;;42.42;16.70;;;;;;;;;;4855192;29;20225;-60
2022/09/27 04:12:57;;;;;;;40.35;17.10;;;;;;;;;;4868685;29;20231;-58
2022/09/27 04:15:27;;;;;;;38.72;17.25;;;;;;;;;;4859883;29;20329;-58
2022/09/27 04:18:23;;;;;;;41.47;17.20;;;;;;;;;;4858900;29;20230;-59
2022/09/27 04:20:55;;;;;;;36.75;18.35;;;;;;;;;;4859392;29;20296;-59
2022/09/27 04:23:22;;;;;;;50.85;17.60;;;;;;;;;;4844708;29;20260;-58
2022/09/27 04:25:55;;;;;;;50.53;17.67;;;;;;;;;;4859611;29;20230;-58
2022/09/27 04:28:50;;;;;;;37.95;17.20;;;;;;;;;;4836910;29;20231;-59
2022/09/27 04:31:21;;;;;;;36.75;17.08;;;;;;;;;;4852549;29;20245;-58
2022/09/27 04:34:12;;;;;;;41.33;17.23;;;;;;;;;;4860019;29;20234;-58
2022/09/27 04:36:40;;;;;;;40.58;16.75;;;;;;;;;;4897969;29;20237;-58
2022/09/27 04:39:13;;;;;;;34.40;16.90;;;;;;;;;;4901000;29;20240;-58
2022/09/27 04:41:43;;;;;;;35.38;16.73;;;;;;;;;;4912402;29;20578;-58
2022/09/27 04:44:11;;;;;;;34.67;16.33;;;;;;;;;;4914743;29;20284;-58
2022/09/27 04:46:41;;;;;;;31.73;16.60;;;;;;;;;;4904063;29;20674;-58
2022/09/27 04:49:09;;;;;;;33.30;15.93;;;;;;;;;;4924497;29;20307;-59
2022/09/27 04:51:37;;;;;;;34.35;15.25;;;;;;;;;;4921296;29;20324;-58
2022/09/27 04:54:04;;;;;;;30.10;15.52;;;;;;;;;;4915370;29;20304;-58
2022/09/27 04:56:41;;;;;;;28.25;15.93;;;;;;;;;;4897745;29;20355;-58
2022/09/27 04:59:08;;;;;;;27.42;15.25;;;;;;;;;;4896081;29;20225;-58
2022/09/27 05:01:39;;;;;;;33.28;16.05;;;;;;;;;;4913681;29;20565;-59
2022/09/27 05:04:06;;;;;;;30.15;15.32;;;;;;;;;;4921914;29;20216;-58
2022/09/27 05:06:37;;;;;;;31.52;15.82;;;;;;;;;;4922124;29;20268;-58
2022/09/27 05:09:08;;;;;;;31.52;15.93;;;;;;;;;;4916784;29;20288;-59
2022/09/27 05:11:47;;;;;;;30.17;15.50;;;;;;;;;;4909256;29;20291;-59
2022/09/27 05:14:15;;;;;;;33.00;17.00;;;;;;;;;;4917587;29;20233;-58
2022/09/27 05:17:06;;;;;;;37.97;16.85;;;;;;;;;;4901389;29;20243;-58
2022/09/27 05:19:52;;;;;;;32.10;16.00;;;;;;;;;;4917493;29;20689;-59
2022/09/27 05:22:45;;;;;;;36.35;17.48;;;;;;;;;;4916393;29;20229;-58
2022/09/27 05:25:13;;;;;;;34.85;16.33;;;;;;;;;;4916370;29;20263;-58
2022/09/27 05:27:40;;;;;;;35.22;17.25;;;;;;;;;;4917499;29;20228;-59
2022/09/27 05:30:09;;;;;;;35.20;17.45;;;;;;;;;;4916092;29;20713;-58
2022/09/27 05:32:49;;;;;;;35.25;17.85;;;;;;;;;;4916689;29;20224;-58
2022/09/27 05:35:26;;;;;;;37.55;17.90;;;;;;;;;;4917842;29;20232;-59
2022/09/27 05:37:57;;;;;;;35.53;17.35;;;;;;;;;;4916232;29;20673;-59
2022/09/27 05:40:28;;;;;;;35.20;16.88;;;;;;;;;;4916938;29;20279;-59
2022/09/27 05:43:10;;;;;;;30.88;16.00;;;;;;;;;;4916344;29;20232;-58
2022/09/27 05:45:38;;;;;;;31.30;16.63;;;;;;;;;;4916317;29;20248;-59
2022/09/27 05:48:07;;;;;;;33.50;15.05;;;;;;;;;;4900610;29;20229;-59
2022/09/27 05:50:43;;;;;;;29.15;15.00;;;;;;;;;;4916543;29;20244;-59
2022/09/27 05:53:12;;;;;;;26.23;14.55;;;;;;;;;;4900175;29;20236;-59
2022/09/27 05:55:40;;;;;;;34.08;16.23;;;;;;;;;;4916430;29;20317;-60
2022/09/27 05:58:09;;;;;;;29.33;15.57;;;;;;;;;;4919125;29;20240;-59
2022/09/27 06:00:44;;;;;;;26.98;14.75;;;;;;;;;;4919624;29;20255;-58
2022/09/27 06:03:32;;;;;;;30.77;15.10;;;;;;;;;;4915329;29;20228;-59
2022/09/27 06:06:18;;;;;;;32.38;15.95;;;;;;;;;;4901666;29;20592;-59
2022/09/27 06:08:49;;;;;;;32.40;16.45;;;;;;;;;;4885469;29;20243;-58
2022/09/27 06:11:18;;;;;;;29.15;16.42;;;;;;;;;;4900773;29;20236;-59
2022/09/27 06:13:48;;;;;;;30.70;15.88;;;;;;;;;;4885092;29;20229;-59
2022/09/27 06:16:16;;;;;;;27.40;15.40;;;;;;;;;;4895732;29;20560;-58
2022/09/27 06:18:44;;;;;;;25.15;14.38;;;;;;;;;;4920383;29;20225;-59
2022/09/27 06:21:12;;;;;;;27.55;14.80;;;;;;;;;;4919400;29;20267;-59
2022/09/27 06:23:44;;;;;;;30.55;17.20;;;;;;;;;;4919592;29;20236;-59
2022/09/27 06:26:16;;;;;;;27.85;15.35;;;;;;;;;;4903724;29;20252;-58
2022/09/27 06:29:22;;;;;;;25.92;15.40;;;;;;;;;;4880252;29;20238;-59
2022/09/27 06:31:58;;;;;;;25.35;15.75;;;;;;;;;;4880774;29;20290;-59
2022/09/27 06:34:46;;;;;;;27.30;15.98;;;;;;;;;;4908267;29;20233;-59
2022/09/27 06:37:14;;;;;;;28.58;16.02;;;;;;;;;;4911849;29;20283;-58
2022/09/27 06:39:41;;;;;;;29.63;17.55;;;;;;;;;;4928606;29;20267;-60
2022/09/27 06:42:35;;;;;;;27.02;16.35;;;;;;;;;;4928346;29;20200;-59
2022/09/27 06:45:09;;;;;;;26.23;16.42;;;;;;;;;;4914243;29;20200;-59
2022/09/27 06:48:08;;;;;;;29.05;17.48;;;;;;;;;;4911463;29;20205;-60
2022/09/27 06:50:45;;;;;;;29.10;17.73;;;;;;;;;;4926763;29;20234;-59
2022/09/27 06:53:14;;;;;;;29.65;17.75;;;;;;;;;;4927697;29;20208;-59
2022/09/27 06:55:41;;;;;;;28.90;18.23;;;;;;;;;;4906977;29;20241;-59
2022/09/27 07:01:15;;;;;;;25.67;16.30;;;;;;;;;;4920171;29;20591;-58
2022/09/27 07:04:01;;;;;;;29.55;17.83;;;;;;;;;;4920024;29;20220;-59
2022/09/27 07:06:48;;;;;;;29.55;18.35;;;;;;;;;;4920112;29;20214;-58
2022/09/27 07:09:21;;;;;;;29.45;17.67;;;;;;;;;;4919436;29;20212;-59
2022/09/27 07:11:49;;;;;;;29.52;18.50;;;;;;;;;;4904058;29;20641;-59
2022/09/27 07:14:16;;;;;;;32.15;19.17;;;;;;;;;;4918839;29;20231;-59
2022/09/27 07:16:44;;;;;;;33.42;19.92;;;;;;;;;;4919216;29;20212;-59
2022/09/27 07:19:13;;;;;;;29.70;17.58;;;;;;;;;;4919791;29;20653;-59
2022/09/27 07:21:40;;;;;;;31.95;18.05;;;;;;;;;;4903382;29;20264;-59
2022/09/27 07:24:08;;;;;;;33.47;19.67;;;;;;;;;;4919113;29;20239;-58
2022/09/27 07:26:35;;;;;;;31.45;19.30;;;;;;;;;;4918902;29;20216;-58
2022/09/27 07:29:04;;;;;;;32.78;19.40;;;;;;;;;;4918821;29;20212;-59
2022/09/27 07:31:31;;;;;;;33.92;18.63;;;;;;;;;;4919059;29;20208;-58
2022/09/27 07:33:59;;;;;;;29.60;18.05;;;;;;;;;;4918862;29;20215;-58
2022/09/27 07:36:26;;;;;;;33.13;19.67;;;;;;;;;;4918717;29;20201;-58
2022/09/27 07:38:55;;;;;;;29.30;18.00;;;;;;;;;;4921098;29;20244;-58
2022/09/27 07:41:22;;;;;;;28.92;18.45;;;;;;;;;;4919862;29;20232;-58
2022/09/27 07:43:49;;;;;;;30.75;18.80;;;;;;;;;;4927112;29;20208;-59
2022/09/27 07:46:18;;;;;;;29.40;17.73;;;;;;;;;;4933916;29;20315;-59
2022/09/27 07:48:51;;;;;;;29.10;17.13;;;;;;;;;;4926365;29;20201;-60
2022/09/27 07:51:41;;;;;;;30.75;18.17;;;;;;;;;;4920115;29;20244;-60
2022/09/27 07:54:29;;;;;;;28.40;16.50;;;;;;;;;;4909257;29;20228;-58
2022/09/27 07:57:05;;;;;;;24.50;16.10;;;;;;;;;;4927358;29;20215;-60
2022/09/27 07:59:41;;;;;;;27.02;17.02;;;;;;;;;;4906678;29;20240;-59
2022/09/27 08:02:14;;;;;;;26.60;17.40;;;;;;;;;;4927311;29;20232;-59
2022/09/27 08:04:42;;;;;;;24.73;16.20;;;;;;;;;;4929935;29;20595;-59
2022/09/27 08:07:09;;;;;;;31.33;18.58;;;;;;;;;;4916353;29;20240;-59
2022/09/27 08:09:42;;;;;;;24.95;14.90;;;;;;;;;;4897784;29;20230;-59
2022/09/27 08:12:09;;;;;;;28.40;17.13;;;;;;;;;;4882047;29;20232;-60
2022/09/27 08:14:36;;;;;;;24.52;15.68;;;;;;;;;;4897740;29;20231;-59
2022/09/27 08:17:13;;;;;;;22.50;14.55;;;;;;;;;;4897668;29;20225;-60
2022/09/27 08:20:09;;;;;;;20.38;14.27;;;;;;;;;;4884119;29;20682;-59
2022/09/27 08:22:55;;;;;;;20.63;12.02;;;;;;;;;;4888589;29;20388;-59
2022/09/27 08:25:31;;;;;;;20.17;13.27;;;;;;;;;;4881851;29;20279;-59
2022/09/27 08:28:04;;;;;;;14.85;10.23;;;;;;;;;;4872354;29;20285;-58
2022/09/27 08:30:41;;;;;;;16.60;10.52;;;;;;;;;;4887614;29;20602;-59
2022/09/27 08:33:08;;;;;;;17.30;11.55;;;;;;;;;;4875145;29;20593;-60
2022/09/27 08:35:35;;;;;;;16.02;11.20;;;;;;;;;;4886368;29;20325;-59
2022/09/27 08:38:04;;;;;;;15.80;11.20;;;;;;;;;;4866942;29;20591;-58
2022/09/27 08:40:53;;;;;;;12.57;9.38;;;;;;;;;;4882161;29;20249;-59
2022/09/27 08:43:51;;;;;;;13.38;10.00;;;;;;;;;;4882676;29;20234;-59
2022/09/27 08:46:27;;;;;;;15.93;11.02;;;;;;;;;;4896897;29;20300;-59
2022/09/27 08:49:13;;;;;;;15.60;10.77;;;;;;;;;;4909681;29;20237;-58
2022/09/27 08:51:42;;;;;;;14.40;10.27;;;;;;;;;;4888380;29;20999;-58
2022/09/27 08:54:24;;;;;;;12.93;10.30;;;;;;;;;;4882216;29;20233;-58
2022/09/27 08:57:03;;;;;;;15.23;10.65;;;;;;;;;;4882899;29;20244;-58
2022/09/27 08:59:36;;;;;;;15.88;11.38;;;;;;;;;;4926736;29;20232;-58
2022/09/27 09:02:05;;;;;;;11.73;9.82;;;;;;;;;;4935648;29;20330;-58
2022/09/27 09:04:38;;;;;;;11.60;9.27;;;;;;;;;;4936737;29;20224;-58
2022/09/27 09:07:21;;;;;;;13.60;9.63;;;;;;;;;;4934020;29;20294;-58
2022/09/27 09:10:00;;;;;;;13.20;10.02;;;;;;;;;;4917501;29;20236;-58
2022/09/27 09:12:57;;;;;;;11.35;8.63;;;;;;;;;;4916733;29;20232;-59
2022/09/27 09:16:01;;;;;;;11.80;9.43;;;;;;;;;;4903323;29;20234;-58
2022/09/27 09:19:12;;;;;;;14.43;10.88;;;;;;;;;;4916953;29;20228;-59
2022/09/27 09:22:04;;;;;;;12.95;10.43;;;;;;;;;;4844285;29;20265;-58
2022/09/27 09:24:56;;;;;;;15.38;10.80;;;;;;;;;;4844370;29;20234;-59
2022/09/27 09:28:08;;;;;;;17.80;11.20;;;;;;;;;;4859808;29;20241;-59
2022/09/27 09:30:53;;;;;;;12.77;9.88;;;;;;;;;;4844415;29;20572;-59
2022/09/27 09:33:31;;;;;;;12.27;9.20;;;;;;;;;;4863081;29;21547;-58
2022/09/27 09:36:07;;;;;;;12.23;9.50;;;;;;;;;;4847453;29;20241;-59
2022/09/27 09:38:44;;;;;;;12.60;8.70;;;;;;;;;;4847741;29;20246;-58
2022/09/27 09:41:20;;;;;;;11.55;9.32;;;;;;;;;;4832211;29;20255;-59
2022/09/27 09:43:51;;;;;;;11.00;8.75;;;;;;;;;;4850158;29;20243;-60
2022/09/27 09:46:24;;;;;;;10.73;8.60;;;;;;;;;;4859079;29;20680;-58
2022/09/27 09:49:06;;;;;;;11.02;8.63;;;;;;;;;;4862246;29;20234;-58
2022/09/27 09:51:38;;;;;;;10.63;8.65;;;;;;;;;;4844442;29;20227;-59
2022/09/27 09:54:12;;;;;;;8.70;7.75;;;;;;;;;;4888506;29;20253;-58
2022/09/27 09:56:44;;;;;;;10.85;7.95;;;;;;;;;;4901657;29;20249;-58
2022/09/27 09:59:15;;;;;;;9.70;7.68;;;;;;;;;;4885412;29;20213;-58
2022/09/27 10:01:46;;;;;;;9.55;7.55;;;;;;;;;;4884334;29;20715;-59
2022/09/27 10:04:26;;;;;;;10.05;7.68;;;;;;;;;;4914077;29;20234;-58
2022/09/27 10:06:58;;;;;;;10.65;7.82;;;;;;;;;;4902561;29;20224;-59
2022/09/27 10:09:29;;;;;;;9.55;7.75;;;;;;;;;;4884441;29;20236;-58
2022/09/27 10:12:29;;;;;;;9.32;7.45;;;;;;;;;;4884577;29;20229;-59
2022/09/27 10:15:02;;;;;;;8.00;7.15;;;;;;;;;;4883877;29;20253;-59
2022/09/27 10:17:36;;;;;;;8.98;7.97;;;;;;;;;;4900671;29;20289;-58
2022/09/27 10:20:06;;;;;;;9.50;7.70;;;;;;;;;;4885005;29;20229;-58
2022/09/27 10:22:36;;;;;;;9.40;8.00;;;;;;;;;;4900141;29;20587;-58
2022/09/27 10:25:16;;;;;;;10.65;7.75;;;;;;;;;;4884719;29;20262;-58
2022/09/27 10:27:53;;;;;;;9.45;7.80;;;;;;;;;;4885228;29;20232;-58
2022/09/27 10:30:33;;;;;;;10.52;8.15;;;;;;;;;;4900003;29;20264;-59
2022/09/27 10:33:17;;;;;;;10.07;7.55;;;;;;;;;;4884906;29;20302;-58
2022/09/27 10:35:49;;;;;;;10.30;7.68;;;;;;;;;;4884608;29;20225;-59
2022/09/27 10:38:33;;;;;;;9.63;7.80;;;;;;;;;;4911099;29;20235;-59
2022/09/27 10:41:46;;;;;;;9.38;7.53;;;;;;;;;;4902903;29;20232;-58
2022/09/27 10:44:31;;;;;;;9.90;7.47;;;;;;;;;;4918835;29;20248;-58
2022/09/27 10:47:22;;;;;;;8.82;7.20;;;;;;;;;;4906372;29;20241;-58
2022/09/27 10:50:06;;;;;;;9.32;7.55;;;;;;;;;;4889715;29;20344;-59
2022/09/27 10:53:19;;;;;;;7.15;6.20;;;;;;;;;;4918801;29;20225;-58
2022/09/27 10:55:56;;;;;;;11.70;7.82;;;;;;;;;;4903266;29;20244;-59
2022/09/27 10:58:27;;;;;;;8.25;6.97;;;;;;;;;;4927304;29;20557;-59
2022/09/27 11:01:06;;;;;;;9.25;7.78;;;;;;;;;;4896566;29;20287;-59
2022/09/27 11:03:58;;;;;;;10.57;8.20;;;;;;;;;;4897515;29;20242;-59
2022/09/27 11:06:29;;;;;;;9.80;8.65;;;;;;;;;;4908908;29;20536;-58
2022/09/27 11:09:10;;;;;;;9.38;8.15;;;;;;;;;;4927301;29;20224;-60
2022/09/27 11:11:38;;;;;;;9.10;7.43;;;;;;;;;;4909223;29;20596;-59
2022/09/27 11:14:17;;;;;;;10.95;8.32;;;;;;;;;;4911797;29;20228;-58
2022/09/27 11:16:50;;;;;;;9.15;7.45;;;;;;;;;;4925107;29;20324;-58
2022/09/27 11:19:41;;;;;;;9.65;8.20;;;;;;;;;;4910098;29;20224;-58
2022/09/27 11:22:16;;;;;;;8.30;7.03;;;;;;;;;;4936130;29;20255;-59
2022/09/27 11:24:55;;;;;;;10.38;7.78;;;;;;;;;;4925911;29;20220;-59
2022/09/27 11:27:41;;;;;;;9.27;7.63;;;;;;;;;;4894482;29;20239;-58
2022/09/27 11:30:15;;;;;;;8.43;7.45;;;;;;;;;;4925753;29;20222;-58
2022/09/27 11:33:18;;;;;;;8.32;7.40;;;;;;;;;;4924944;29;20288;-59
2022/09/27 11:36:00;;;;;;;13.38;8.55;;;;;;;;;;4905836;29;20255;-58
2022/09/27 11:38:55;;;;;;;9.38;7.50;;;;;;;;;;4936814;29;20226;-59
2022/09/27 11:41:39;;;;;;;8.73;7.13;;;;;;;;;;4917339;29;20263;-58
2022/09/27 11:44:12;;;;;;;8.77;7.72;;;;;;;;;;4911425;29;20245;-59
2022/09/27 11:46:40;;;;;;;10.70;7.15;;;;;;;;;;4925821;29;20219;-58
2022/09/27 11:49:38;;;;;;;9.43;7.40;;;;;;;;;;4908549;29;20745;-58
2022/09/27 11:52:12;;;;;;;9.88;7.63;;;;;;;;;;4926264;29;20238;-59
2022/09/27 11:54:51;;;;;;;9.55;8.05;;;;;;;;;;4918290;29;20232;-58
2022/09/27 11:57:40;;;;;;;13.45;8.50;;;;;;;;;;4901649;29;20228;-58
2022/09/27 12:00:09;;;;;;;9.43;7.72;;;;;;;;;;4902514;29;20240;-58
2022/09/27 12:03:00;;;;;;;8.95;7.88;;;;;;;;;;4901874;29;20244;-58
2022/09/27 12:05:58;;;;;;;11.38;7.57;;;;;;;;;;4901451;29;20228;-58
2022/09/27 12:09:11;;;;;;;9.18;7.97;;;;;;;;;;4917374;29;20246;-59
2022/09/27 12:11:54;;;;;;;8.98;7.10;;;;;;;;;;4843649;29;20613;-58
2022/09/27 12:14:38;;;;;;;9.55;8.07;;;;;;;;;;4845184;29;20212;-58
2022/09/27 12:17:11;;;;;;;9.88;7.70;;;;;;;;;;4857127;29;20198;-59
2022/09/27 12:19:49;;;;;;;8.32;6.78;;;;;;;;;;4859895;29;20248;-60
2022/09/27 12:22:34;;;;;;;7.65;6.55;;;;;;;;;;4857758;29;20782;-58
2022/09/27 12:25:28;;;;;;;8.25;6.38;;;;;;;;;;4859742;29;20205;-59
2022/09/27 12:28:08;;;;;;;8.73;6.78;;;;;;;;;;4859680;29;20299;-59
2022/09/27 12:30:39;;;;;;;7.70;6.40;;;;;;;;;;4839934;29;20593;-59
2022/09/27 12:33:14;;;;;;;9.20;7.03;;;;;;;;;;4844643;29;20274;-59
2022/09/27 12:35:46;;;;;;;10.68;7.40;;;;;;;;;;4828405;29;20223;-60
2022/09/27 12:38:34;;;;;;;7.60;6.75;;;;;;;;;;4835082;29;20698;-59
2022/09/27 12:41:04;;;;;;;10.95;6.60;;;;;;;;;;4854721;29;20208;-59
2022/09/27 12:43:44;;;;;;;7.82;7.00;;;;;;;;;;4820367;29;20250;-58
2022/09/27 12:46:42;;;;;;;8.93;6.30;;;;;;;;;;4896800;29;20229;-59
2022/09/27 12:49:16;;;;;;;8.10;6.57;;;;;;;;;;4915410;29;20240;-60
2022/09/27 12:51:51;;;;;;;7.85;6.53;;;;;;;;;;4920686;29;20228;-59
2022/09/27 12:54:21;;;;;;;7.97;6.40;;;;;;;;;;4885751;29;20256;-59
2022/09/27 12:57:00;;;;;;;8.48;6.93;;;;;;;;;;4917074;29;20229;-58
2022/09/27 13:00:00;;;;;;;10.93;7.05;;;;;;;;;;4900180;29;20236;-59
2022/09/27 13:02:52;;;;;;;6.90;6.15;;;;;;;;;;4825913;29;20257;-59
2022/09/27 13:05:46;;;;;;;7.15;6.25;;;;;;;;;;4842071;29;20227;-59
2022/09/27 13:08:29;;;;;;;7.50;6.15;;;;;;;;;;4829629;29;20234;-59
2022/09/27 13:11:38;;;;;;;7.20;6.25;;;;;;;;;;4845067;29;20227;-60
2022/09/27 13:14:14;;;;;;;6.38;5.72;;;;;;;;;;4823875;29;20303;-59
2022/09/27 13:16:43;;;;;;;6.63;5.88;;;;;;;;;;4845090;29;20231;-58
2022/09/27 13:19:42;;;;;;;7.53;6.07;;;;;;;;;;4829050;29;20335;-58
2022/09/27 13:22:27;;;;;;;23.77;13.20;;;;;;;;;;4819689;29;20246;-58
2022/09/27 13:25:01;;;;;;;47.78;30.25;;;;;;;;;;4829173;29;20239;-59
2022/09/27 13:27:55;;;;;;;33.17;24.73;;;;;;;;;;4844007;29;20242;-58
2022/09/27 13:30:34;;;;;;;13.88;11.68;;;;;;;;;;4844493;29;20329;-58
2022/09/27 13:33:21;;;;;;;22.45;17.80;;;;;;;;;;4826385;29;20238;-60
2022/09/27 13:36:27;;;;;;;16.20;12.93;;;;;;;;;;4829149;29;20264;-59
2022/09/27 13:39:04;;;;;;;14.70;10.82;;;;;;;;;;4880813;29;20245;-58
2022/09/27 13:41:45;;;;;;;45.85;26.90;;;;;;;;;;4913692;29;20329;-60
2022/09/27 13:44:19;;;;;;;61.75;35.67;;;;;;;;;;4915078;29;20255;-61
2022/09/27 13:46:59;;;;;;;16.08;12.07;;;;;;;;;;4904592;29;20311;-58
2022/09/27 13:49:39;;;;;;;18.17;13.65;;;;;;;;;;4919689;29;20229;-59
2022/09/27 13:52:30;;;;;;;21.23;14.13;;;;;;;;;;4920059;29;20366;-60
2022/09/27 13:55:46;;;;;;;15.25;11.15;;;;;;;;;;4918455;29;20225;-59
2022/09/27 13:58:46;;;;;;;15.63;10.95;;;;;;;;;;4919329;29;20235;-59
2022/09/27 14:01:51;;;;;;;12.13;9.52;;;;;;;;;;4897868;29;20228;-58
2022/09/27 14:04:34;;;;;;;17.40;12.23;;;;;;;;;;4906840;29;20682;-59
2022/09/27 14:07:02;;;;;;;19.65;14.18;;;;;;;;;;4908124;29;20295;-61
2022/09/27 14:09:32;;;;;;;16.75;11.65;;;;;;;;;;4926983;29;20344;-59
2022/09/27 14:12:36;;;;;;;15.25;11.18;;;;;;;;;;4862280;29;20234;-59
2022/09/27 14:15:08;;;;;;;39.83;26.23;;;;;;;;;;4861564;29;20282;-60
2022/09/27 14:17:44;;;;;;;19.35;12.43;;;;;;;;;;4852128;29;20229;-60
2022/09/27 14:20:49;;;;;;;10.98;9.50;;;;;;;;;;4845799;29;20239;-61
2022/09/27 14:23:45;;;;;;;33.17;18.17;;;;;;;;;;4814455;29;20251;-60
2022/09/27 14:26:21;;;;;;;39.33;22.55;;;;;;;;;;4814837;29;20236;-60
2022/09/27 14:28:49;;;;;;;24.30;17.23;;;;;;;;;;4817331;29;20591;-60
2022/09/27 14:31:30;;;;;;;39.17;24.20;;;;;;;;;;4798539;29;20700;-60
2022/09/27 14:34:11;;;;;;;41.83;24.60;;;;;;;;;;4812567;29;20224;-59
2022/09/27 14:39:36;;;;;;;47.45;29.10;;;;;;;;;;4815700;29;20244;-60
2022/09/27 14:42:35;;;;;;;74.93;44.55;;;;;;;;;;4811963;29;20243;-59
2022/09/27 14:45:26;;;;;;;52.05;29.67;;;;;;;;;;4807204;29;20243;-60
2022/09/27 14:47:53;;;;;;;40.22;24.33;;;;;;;;;;4791321;29;20289;-60
2022/09/27 14:50:24;;;;;;;39.90;25.50;;;;;;;;;;4846796;29;20661;-60
2022/09/27 14:52:56;;;;;;;48.28;28.98;;;;;;;;;;4861731;29;20692;-59
2022/09/27 14:55:28;;;;;;;62.78;38.20;;;;;;;;;;4861902;29;20673;-60
2022/09/27 14:57:57;;;;;;;47.20;30.15;;;;;;;;;;4895524;29;20717;-59
2022/09/27 15:00:30;;;;;;;35.65;23.17;;;;;;;;;;4890300;29;20568;-60
2022/09/27 15:02:59;;;;;;;35.50;23.90;;;;;;;;;;4902637;29;20244;-60
2022/09/27 15:05:29;;;;;;;49.47;32.17;;;;;;;;;;4904603;29;20233;-59
2022/09/27 15:07:59;;;;;;;46.40;30.60;;;;;;;;;;4909075;29;20217;-62
2022/09/27 15:10:30;;;;;;;31.40;20.00;;;;;;;;;;4888972;29;20221;-61
2022/09/27 15:13:00;;;;;;;35.90;26.20;;;;;;;;;;4906029;29;20226;-62
2022/09/27 15:15:33;;;;;;;26.40;18.92;;;;;;;;;;4890454;29;20320;-60
2022/09/27 15:18:02;;;;;;;43.92;29.13;;;;;;;;;;4910237;29;20248;-61
2022/09/27 15:20:30;;;;;;;31.98;22.00;;;;;;;;;;4906899;29;20232;-61
2022/09/27 15:23:03;;;;;;;25.30;16.73;;;;;;;;;;4890802;29;20225;-62
2022/09/27 15:25:37;;;;;;;30.55;21.08;;;;;;;;;;4906594;29;20223;-60
2022/09/27 15:28:11;;;;;;;28.90;15.43;;;;;;;;;;4902479;29;20672;-64
2022/09/27 15:30:49;;;;;;;20.30;13.95;;;;;;;;;;4891347;29;20229;-61